DeKalb, Illinois
Current Conditions -  °F | °C
As of 12:55 PM on Tuesday 27 Jan 2015 (Local Time) from KDKB Reporting Station
Overcast Overcast  
Wind Chill: 23°   Ceiling: 1900
Heat Index: 28°   Visibility: 10mi
Dew Point: 23°   Wind: 5mph
Humidity: 80%   Direction: 60°ENE
Pressure: 30.17"   Gusts: NA
Location:  41.93°N, 88.75°W
Report Text: KDKB 271855Z AUTO 06004KT 10SM OVC019 M02/M05 A3017 RMK AO2 T10211052
Loading
Personal Weather Stations






























Interactive Weather Map New forecast layout! Learn more

10-Day Weather Forecast

Advertisements
Track Severe Weather on mobile